createdAt,value
2022-07-25T00:00:02.655Z,103.85
2022-07-25T00:15:01.672Z,104.18
2022-07-25T00:30:01.747Z,103.93
2022-07-25T00:45:01.711Z,104.18
2022-07-25T01:00:02.207Z,103.45
2022-07-25T01:15:02.089Z,104.78
2022-07-25T01:30:02.317Z,104.62
2022-07-25T01:45:01.608Z,104.58
2022-07-25T02:00:01.914Z,104.78
2022-07-25T02:15:01.999Z,106.69
2022-07-25T02:30:02.272Z,105.71
2022-07-25T02:45:01.466Z,106.52
2022-07-25T03:00:01.705Z,106.12
2022-07-25T03:15:01.547Z,106.52
2022-07-25T03:30:02.781Z,106.56
2022-07-25T03:45:02.659Z,107.78
2022-07-25T04:00:01.382Z,105.59
2022-07-25T04:15:02.353Z,105.23
2022-07-25T04:30:02.278Z,106.52
2022-07-25T04:45:02.035Z,106.24
2022-07-25T05:00:02.012Z,106.48
2022-07-25T05:15:01.899Z,105.39
2022-07-25T05:30:02.230Z,103.77
2022-07-25T05:45:01.930Z,103.21
2022-07-25T06:00:01.668Z,101.42
2022-07-25T06:15:02.212Z,97.46
2022-07-25T06:30:01.449Z,97.9
2022-07-25T06:45:02.198Z,94.71
2022-07-25T07:00:01.950Z,90.7
2022-07-25T07:15:02.127Z,87.83
2022-07-25T07:30:01.429Z,85.15
2022-07-25T07:45:02.132Z,83.78
2022-07-25T08:00:01.943Z,78.52
2022-07-25T08:30:01.973Z,69.86
2022-07-25T08:45:02.336Z,68.6
2022-07-25T09:00:01.444Z,62.17
2022-07-25T09:15:02.287Z,56.91
2022-07-25T09:30:02.042Z,53.71
2022-07-25T09:45:02.365Z,49.78
2022-07-25T10:00:03.147Z,44.64
2022-07-25T10:15:01.415Z,42.5
2022-07-25T10:30:01.711Z,40.84
2022-07-25T10:45:02.773Z,36.39
2022-07-25T11:00:02.863Z,36.87
2022-07-25T11:15:02.266Z,37.84
2022-07-25T11:30:02.210Z,37.84
2022-07-25T11:45:01.850Z,37.84
2022-07-25T12:00:02.257Z,37.84
2022-07-25T12:15:02.259Z,37.84
2022-07-25T12:30:01.591Z,37.84
2022-07-25T12:45:01.761Z,37.84
2022-07-25T13:00:02.077Z,37.84
2022-07-25T13:15:02.259Z,37.84
2022-07-25T13:30:02.269Z,37.84
2022-07-25T13:45:01.638Z,37.84
2022-07-25T14:00:01.781Z,37.84
2022-07-25T14:15:01.964Z,37.84
2022-07-25T14:30:02.404Z,37.84
2022-07-25T14:45:02.263Z,37.84
2022-07-25T15:00:02.397Z,37.84
2022-07-25T15:15:02.688Z,37.84
2022-07-25T15:30:03.168Z,37.84
2022-07-25T15:45:31.165Z,37.84
2022-07-25T16:00:01.818Z,37.84
2022-07-25T16:15:02.104Z,37.84
2022-07-25T16:30:02.457Z,37.84
2022-07-25T16:45:02.768Z,37.84
2022-07-25T17:00:01.428Z,37.84
2022-07-25T17:15:01.560Z,37.84
2022-07-25T17:30:01.830Z,37.84
2022-07-25T17:45:02.077Z,37.84
2022-07-25T18:00:02.356Z,37.84
2022-07-25T18:15:02.712Z,37.84
2022-07-25T18:30:02.612Z,37.84
2022-07-25T18:45:03.033Z,37.84
2022-07-25T19:00:03.899Z,37.84
2022-07-25T19:15:01.916Z,37.84
2022-07-25T19:30:02.371Z,37.84
2022-07-25T19:45:02.670Z,37.84
2022-07-25T20:00:01.729Z,37.84
2022-07-25T20:15:02.533Z,37.84
2022-07-25T20:30:02.084Z,37.84
2022-07-25T20:45:01.358Z,37.84
2022-07-25T21:00:02.096Z,37.84
2022-07-25T21:15:01.518Z,37.84
2022-07-25T21:30:01.803Z,37.84
2022-07-25T21:45:03.013Z,37.84
2022-07-25T22:00:02.243Z,161.73
2022-07-25T22:15:02.346Z,161.73
2022-07-25T22:30:02.015Z,161.73
2022-07-25T22:45:01.947Z,161.73
2022-07-25T23:00:02.248Z,161.73
2022-07-25T23:15:03.112Z,106.12
2022-07-25T23:30:02.017Z,105.71
2022-07-25T23:45:02.760Z,106.73
